Airfield :
LOGIN :

Register | Disclaimer

   EN    FR    IT 

 










Legend :    VFR   Marginal VFR   IFR   Intensive IFR   Very Intensive IFR
Visi :
Ceiling :
>= 8 km
>= 3000ft
5 to 8 km
1000 to 3000 ft
1500m to 5 km
500 to 1000 ft
800 to 1500m
200 to 500 ft
< 800m
< 200 ft
Symbols :   Thunderstorms  Fog  Heavy snow  Heavy precipitations  Wind > 20 kt
SIGMETs :     Misc.  Thunderstorms  Icing  Turbulence  Mountain Waves  Volcanic Ashes






- Airport Elevation : 17 ft
- IATA code : CPH


EKCH - København - Kastrup (Copenhagen)

CURRENT METAR :
  • 041450Z 05016KT 9999 BKN008 02/01 Q1026 TEMPO BKN012

EXPIRED METARs :
  • 041420Z 05015KT 6000 -RA SCT006 BKN018 02/01 Q1026 TEMPO BKN012
  • 041350Z 05015KT 9000 -SHRA SCT008 BKN035 02/01 Q1026 TEMPO BKN012
  • 041320Z 05014KT 9999 -SHRA BKN008 BKN035 02/01 Q1026 TEMPO BKN015
  • 041250Z 05015KT 9999 -SHRA BKN008 BKN035 02/01 Q1026 TEMPO BKN015
  • 041220Z 06014KT 9999 -DZ OVC013 02/01 Q1026 TEMPO BKN015

TAF AMD TAF EKCH
Valid from the 04 at 12:00 until the 05 at 12:00 UTC


041255Z 0412/0512 06015KT 9999 BKN015
TEMPO 0412/0512 BKN008



MET'MAP, your aeronautical weather chart ! - Copyright ORBIFLY December 2007 - Disclaimer

ORBIFLY MET'MAP TEAM :

Programming & Development : Alexandra Zaïnal
Original concept : Baudouin d'Aumeries
Technical & hardware support : Manuel Goepfert
Assistance : Marc-Olivier Méhu




SOURCES & CREDITS :

   NOAA